sensor_id;sensor_type;location;lat;lon;timestamp;P1;durP1;ratioP1;P2;durP2;ratioP2
75787;SDS011;64406;50.024;14.492;2023-06-04T00:00:31;1.88;;;1.33;;
75787;SDS011;64406;50.024;14.492;2023-06-04T00:03:17;3.03;;;1.50;;
75787;SDS011;64406;50.024;14.492;2023-06-04T00:05:42;4.25;;;1.40;;
75787;SDS011;64406;50.024;14.492;2023-06-04T00:08:08;3.10;;;1.70;;
75787;SDS011;64406;50.024;14.492;2023-06-04T00:10:33;2.97;;;1.40;;
75787;SDS011;64406;50.024;14.492;2023-06-04T00:12:59;1.95;;;1.00;;
75787;SDS011;64406;50.024;14.492;2023-06-04T00:15:25;4.63;;;1.45;;
75787;SDS011;64406;50.024;14.492;2023-06-04T00:17:51;3.03;;;1.48;;
75787;SDS011;64406;50.024;14.492;2023-06-04T00:20:17;3.00;;;1.65;;
75787;SDS011;64406;50.024;14.492;2023-06-04T00:22:43;2.97;;;1.52;;
75787;SDS011;64406;50.024;14.492;2023-06-04T00:25:09;3.72;;;1.55;;
75787;SDS011;64406;50.024;14.492;2023-06-04T00:27:35;2.67;;;1.00;;
75787;SDS011;64406;50.024;14.492;2023-06-04T00:30:02;3.05;;;1.48;;
75787;SDS011;64406;50.024;14.492;2023-06-04T00:32:28;2.72;;;1.30;;
75787;SDS011;64406;50.024;14.492;2023-06-04T00:34:54;1.77;;;1.58;;
75787;SDS011;64406;50.024;14.492;2023-06-04T00:37:23;3.13;;;1.55;;
75787;SDS011;64406;50.024;14.492;2023-06-04T00:39:50;2.85;;;2.00;;
75787;SDS011;64406;50.024;14.492;2023-06-04T00:42:16;4.60;;;1.48;;
75787;SDS011;64406;50.024;14.492;2023-06-04T00:44:42;3.40;;;1.58;;
75787;SDS011;64406;50.024;14.492;2023-06-04T00:47:14;2.78;;;1.40;;
75787;SDS011;64406;50.024;14.492;2023-06-04T00:49:41;1.83;;;1.30;;
75787;SDS011;64406;50.024;14.492;2023-06-04T00:52:09;2.53;;;1.65;;
75787;SDS011;64406;50.024;14.492;2023-06-04T00:54:36;2.80;;;1.30;;
75787;SDS011;64406;50.024;14.492;2023-06-04T00:57:06;4.93;;;1.77;;
75787;SDS011;64406;50.024;14.492;2023-06-04T00:59:34;3.97;;;1.60;;
75787;SDS011;64406;50.024;14.492;2023-06-04T01:02:03;1.60;;;1.40;;
75787;SDS011;64406;50.024;14.492;2023-06-04T01:07:28;2.40;;;1.48;;
75787;SDS011;64406;50.024;14.492;2023-06-04T01:09:55;4.82;;;1.50;;
75787;SDS011;64406;50.024;14.492;2023-06-04T01:12:22;7.00;;;1.80;;
75787;SDS011;64406;50.024;14.492;2023-06-04T01:14:48;2.92;;;1.67;;
75787;SDS011;64406;50.024;14.492;2023-06-04T01:17:23;3.45;;;1.85;;
75787;SDS011;64406;50.024;14.492;2023-06-04T01:25:34;2.25;;;1.30;;
75787;SDS011;64406;50.024;14.492;2023-06-04T01:28:05;2.80;;;1.52;;
75787;SDS011;64406;50.024;14.492;2023-06-04T01:30:35;3.13;;;1.58;;
75787;SDS011;64406;50.024;14.492;2023-06-04T01:33:09;4.20;;;1.85;;
75787;SDS011;64406;50.024;14.492;2023-06-04T01:35:36;2.72;;;1.50;;
75787;SDS011;64406;50.024;14.492;2023-06-04T01:38:02;4.65;;;1.80;;
75787;SDS011;64406;50.024;14.492;2023-06-04T01:40:28;2.00;;;1.55;;
75787;SDS011;64406;50.024;14.492;2023-06-04T01:42:54;1.70;;;1.25;;
75787;SDS011;64406;50.024;14.492;2023-06-04T01:45:21;3.45;;;1.77;;
75787;SDS011;64406;50.024;14.492;2023-06-04T01:47:48;2.15;;;1.40;;
75787;SDS011;64406;50.024;14.492;2023-06-04T01:50:13;3.63;;;2.28;;
75787;SDS011;64406;50.024;14.492;2023-06-04T01:52:39;2.33;;;1.60;;
75787;SDS011;64406;50.024;14.492;2023-06-04T01:55:05;5.00;;;1.60;;
75787;SDS011;64406;50.024;14.492;2023-06-04T01:57:33;3.35;;;1.92;;
75787;SDS011;64406;50.024;14.492;2023-06-04T02:00:00;4.45;;;1.85;;
75787;SDS011;64406;50.024;14.492;2023-06-04T02:02:26;3.55;;;1.63;;
75787;SDS011;64406;50.024;14.492;2023-06-04T02:04:52;1.90;;;1.63;;
75787;SDS011;64406;50.024;14.492;2023-06-04T02:07:18;2.40;;;1.50;;
75787;SDS011;64406;50.024;14.492;2023-06-04T02:09:46;6.47;;;1.95;;
75787;SDS011;64406;50.024;14.492;2023-06-04T02:12:12;3.60;;;1.67;;
75787;SDS011;64406;50.024;14.492;2023-06-04T02:14:38;2.45;;;1.80;;
75787;SDS011;64406;50.024;14.492;2023-06-04T02:17:04;2.53;;;1.60;;
75787;SDS011;64406;50.024;14.492;2023-06-04T02:19:38;4.50;;;1.33;;
75787;SDS011;64406;50.024;14.492;2023-06-04T02:22:05;5.75;;;1.90;;
75787;SDS011;64406;50.024;14.492;2023-06-04T02:24:31;3.95;;;1.25;;
75787;SDS011;64406;50.024;14.492;2023-06-04T02:26:57;2.45;;;1.40;;
75787;SDS011;64406;50.024;14.492;2023-06-04T02:29:22;3.35;;;1.77;;
75787;SDS011;64406;50.024;14.492;2023-06-04T02:31:48;1.98;;;1.65;;
75787;SDS011;64406;50.024;14.492;2023-06-04T02:34:13;3.83;;;1.85;;
75787;SDS011;64406;50.024;14.492;2023-06-04T02:36:39;5.15;;;1.48;;
75787;SDS011;64406;50.024;14.492;2023-06-04T02:39:05;3.42;;;1.73;;
75787;SDS011;64406;50.024;14.492;2023-06-04T02:41:31;12.13;;;2.25;;
75787;SDS011;64406;50.024;14.492;2023-06-04T02:43:56;3.40;;;1.83;;
75787;SDS011;64406;50.024;14.492;2023-06-04T02:46:22;3.33;;;1.70;;
75787;SDS011;64406;50.024;14.492;2023-06-04T02:48:47;2.97;;;1.65;;
75787;SDS011;64406;50.024;14.492;2023-06-04T02:51:13;2.97;;;1.40;;
75787;SDS011;64406;50.024;14.492;2023-06-04T02:53:38;3.67;;;1.60;;
75787;SDS011;64406;50.024;14.492;2023-06-04T02:56:04;2.70;;;1.52;;
75787;SDS011;64406;50.024;14.492;2023-06-04T02:58:31;2.88;;;1.70;;
75787;SDS011;64406;50.024;14.492;2023-06-04T03:00:57;2.65;;;1.40;;
75787;SDS011;64406;50.024;14.492;2023-06-04T03:03:22;3.85;;;1.73;;
75787;SDS011;64406;50.024;14.492;2023-06-04T03:05:48;3.03;;;1.52;;
75787;SDS011;64406;50.024;14.492;2023-06-04T03:08:14;2.20;;;1.35;;
75787;SDS011;64406;50.024;14.492;2023-06-04T03:10:40;3.45;;;1.65;;
75787;SDS011;64406;50.024;14.492;2023-06-04T03:13:05;3.85;;;2.20;;
75787;SDS011;64406;50.024;14.492;2023-06-04T03:15:31;2.75;;;1.55;;
75787;SDS011;64406;50.024;14.492;2023-06-04T03:17:56;4.75;;;1.80;;
75787;SDS011;64406;50.024;14.492;2023-06-04T03:20:22;3.88;;;1.75;;
75787;SDS011;64406;50.024;14.492;2023-06-04T03:22:49;5.55;;;2.00;;
75787;SDS011;64406;50.024;14.492;2023-06-04T03:25:16;5.18;;;1.90;;
75787;SDS011;64406;50.024;14.492;2023-06-04T03:27:41;3.75;;;1.92;;
75787;SDS011;64406;50.024;14.492;2023-06-04T03:30:07;3.55;;;1.95;;
75787;SDS011;64406;50.024;14.492;2023-06-04T03:32:33;3.35;;;1.80;;
75787;SDS011;64406;50.024;14.492;2023-06-04T03:34:59;5.30;;;2.35;;
75787;SDS011;64406;50.024;14.492;2023-06-04T03:37:25;5.65;;;2.20;;
75787;SDS011;64406;50.024;14.492;2023-06-04T03:39:52;4.40;;;2.10;;
75787;SDS011;64406;50.024;14.492;2023-06-04T03:42:17;4.25;;;2.40;;
75787;SDS011;64406;50.024;14.492;2023-06-04T03:44:44;5.68;;;2.13;;
75787;SDS011;64406;50.024;14.492;2023-06-04T03:47:09;4.50;;;2.05;;
75787;SDS011;64406;50.024;14.492;2023-06-04T03:49:35;2.63;;;1.98;;
75787;SDS011;64406;50.024;14.492;2023-06-04T03:52:01;4.90;;;3.00;;
75787;SDS011;64406;50.024;14.492;2023-06-04T03:54:26;3.03;;;2.05;;
75787;SDS011;64406;50.024;14.492;2023-06-04T03:56:52;3.28;;;1.90;;
75787;SDS011;64406;50.024;14.492;2023-06-04T03:59:18;5.03;;;2.15;;
75787;SDS011;64406;50.024;14.492;2023-06-04T04:01:43;4.55;;;2.55;;
75787;SDS011;64406;50.024;14.492;2023-06-04T04:04:09;2.60;;;2.03;;
75787;SDS011;64406;50.024;14.492;2023-06-04T04:06:35;3.67;;;2.08;;
75787;SDS011;64406;50.024;14.492;2023-06-04T04:09:02;5.57;;;2.22;;
75787;SDS011;64406;50.024;14.492;2023-06-04T04:11:29;8.15;;;1.90;;
75787;SDS011;64406;50.024;14.492;2023-06-04T04:13:55;4.03;;;2.50;;
75787;SDS011;64406;50.024;14.492;2023-06-04T04:16:20;3.60;;;1.80;;
75787;SDS011;64406;50.024;14.492;2023-06-04T04:18:46;4.32;;;1.70;;
75787;SDS011;64406;50.024;14.492;2023-06-04T04:21:11;3.70;;;2.10;;
75787;SDS011;64406;50.024;14.492;2023-06-04T04:23:37;3.33;;;2.17;;
75787;SDS011;64406;50.024;14.492;2023-06-04T04:26:05;3.17;;;2.05;;
75787;SDS011;64406;50.024;14.492;2023-06-04T04:28:31;5.07;;;2.33;;
75787;SDS011;64406;50.024;14.492;2023-06-04T04:30:57;2.53;;;1.80;;
75787;SDS011;64406;50.024;14.492;2023-06-04T04:33:24;8.15;;;2.42;;
75787;SDS011;64406;50.024;14.492;2023-06-04T04:35:51;3.75;;;2.08;;
75787;SDS011;64406;50.024;14.492;2023-06-04T04:38:19;4.53;;;2.25;;
75787;SDS011;64406;50.024;14.492;2023-06-04T04:40:46;4.47;;;2.55;;
75787;SDS011;64406;50.024;14.492;2023-06-04T04:43:13;5.63;;;2.30;;
75787;SDS011;64406;50.024;14.492;2023-06-04T04:45:39;3.53;;;2.08;;
75787;SDS011;64406;50.024;14.492;2023-06-04T04:48:04;5.03;;;2.35;;
75787;SDS011;64406;50.024;14.492;2023-06-04T04:50:30;3.13;;;2.30;;
75787;SDS011;64406;50.024;14.492;2023-06-04T04:52:57;3.67;;;2.03;;
75787;SDS011;64406;50.024;14.492;2023-06-04T04:55:23;3.60;;;2.15;;
75787;SDS011;64406;50.024;14.492;2023-06-04T04:57:49;3.28;;;1.95;;
75787;SDS011;64406;50.024;14.492;2023-06-04T05:00:14;4.20;;;2.28;;
75787;SDS011;64406;50.024;14.492;2023-06-04T05:02:41;4.05;;;2.20;;
75787;SDS011;64406;50.024;14.492;2023-06-04T05:05:06;4.80;;;2.20;;
75787;SDS011;64406;50.024;14.492;2023-06-04T05:07:32;5.22;;;2.20;;
75787;SDS011;64406;50.024;14.492;2023-06-04T05:09:57;4.47;;;2.28;;
75787;SDS011;64406;50.024;14.492;2023-06-04T05:12:29;4.75;;;2.20;;
75787;SDS011;64406;50.024;14.492;2023-06-04T05:14:56;4.15;;;2.03;;
75787;SDS011;64406;50.024;14.492;2023-06-04T05:17:21;3.75;;;1.80;;
75787;SDS011;64406;50.024;14.492;2023-06-04T05:19:55;3.25;;;1.95;;
75787;SDS011;64406;50.024;14.492;2023-06-04T05:22:30;2.97;;;2.17;;
75787;SDS011;64406;50.024;14.492;2023-06-04T05:24:57;3.10;;;1.42;;
75787;SDS011;64406;50.024;14.492;2023-06-04T05:27:25;6.00;;;2.03;;
75787;SDS011;64406;50.024;14.492;2023-06-04T05:29:51;3.05;;;1.90;;
75787;SDS011;64406;50.024;14.492;2023-06-04T05:32:16;2.80;;;1.70;;
75787;SDS011;64406;50.024;14.492;2023-06-04T05:34:43;5.68;;;2.15;;
75787;SDS011;64406;50.024;14.492;2023-06-04T05:37:09;2.40;;;1.92;;
75787;SDS011;64406;50.024;14.492;2023-06-04T05:39:34;6.07;;;1.80;;
75787;SDS011;64406;50.024;14.492;2023-06-04T05:42:01;4.22;;;1.83;;
75787;SDS011;64406;50.024;14.492;2023-06-04T05:44:26;3.78;;;1.90;;
75787;SDS011;64406;50.024;14.492;2023-06-04T05:46:52;2.90;;;2.00;;
75787;SDS011;64406;50.024;14.492;2023-06-04T05:49:18;3.30;;;1.58;;
75787;SDS011;64406;50.024;14.492;2023-06-04T05:51:45;3.83;;;1.63;;
75787;SDS011;64406;50.024;14.492;2023-06-04T05:54:10;2.75;;;1.95;;
75787;SDS011;64406;50.024;14.492;2023-06-04T05:56:36;5.70;;;2.10;;
75787;SDS011;64406;50.024;14.492;2023-06-04T05:59:01;4.80;;;1.90;;
75787;SDS011;64406;50.024;14.492;2023-06-04T06:01:27;2.50;;;1.83;;
75787;SDS011;64406;50.024;14.492;2023-06-04T06:03:54;2.58;;;1.83;;
75787;SDS011;64406;50.024;14.492;2023-06-04T06:06:20;3.47;;;2.42;;
75787;SDS011;64406;50.024;14.492;2023-06-04T06:08:46;3.38;;;2.13;;
75787;SDS011;64406;50.024;14.492;2023-06-04T06:11:12;3.05;;;1.98;;
75787;SDS011;64406;50.024;14.492;2023-06-04T06:13:37;4.10;;;1.90;;
75787;SDS011;64406;50.024;14.492;2023-06-04T06:16:03;3.03;;;1.75;;
75787;SDS011;64406;50.024;14.492;2023-06-04T06:18:29;3.22;;;1.83;;
75787;SDS011;64406;50.024;14.492;2023-06-04T06:20:55;4.55;;;1.55;;
75787;SDS011;64406;50.024;14.492;2023-06-04T06:23:21;4.05;;;2.03;;
75787;SDS011;64406;50.024;14.492;2023-06-04T06:29:29;4.72;;;1.63;;
75787;SDS011;64406;50.024;14.492;2023-06-04T06:31:55;3.60;;;2.00;;
75787;SDS011;64406;50.024;14.492;2023-06-04T06:34:21;4.03;;;1.90;;
75787;SDS011;64406;50.024;14.492;2023-06-04T06:36:46;2.80;;;1.67;;
75787;SDS011;64406;50.024;14.492;2023-06-04T06:39:12;2.92;;;1.45;;
75787;SDS011;64406;50.024;14.492;2023-06-04T06:41:38;3.10;;;1.67;;
75787;SDS011;64406;50.024;14.492;2023-06-04T06:44:04;2.92;;;1.40;;
75787;SDS011;64406;50.024;14.492;2023-06-04T06:46:29;3.92;;;1.48;;
75787;SDS011;64406;50.024;14.492;2023-06-04T06:48:55;1.55;;;1.38;;
75787;SDS011;64406;50.024;14.492;2023-06-04T06:51:21;1.95;;;1.63;;
75787;SDS011;64406;50.024;14.492;2023-06-04T06:53:48;4.22;;;1.70;;
75787;SDS011;64406;50.024;14.492;2023-06-04T06:56:16;1.95;;;1.60;;
75787;SDS011;64406;50.024;14.492;2023-06-04T06:58:43;2.35;;;1.40;;
75787;SDS011;64406;50.024;14.492;2023-06-04T07:01:09;7.47;;;2.00;;
75787;SDS011;64406;50.024;14.492;2023-06-04T07:03:35;2.80;;;1.67;;
75787;SDS011;64406;50.024;14.492;2023-06-04T07:06:01;3.17;;;1.70;;
75787;SDS011;64406;50.024;14.492;2023-06-04T07:08:27;6.15;;;2.10;;
75787;SDS011;64406;50.024;14.492;2023-06-04T07:10:53;4.88;;;1.60;;
75787;SDS011;64406;50.024;14.492;2023-06-04T07:13:19;3.72;;;1.73;;
75787;SDS011;64406;50.024;14.492;2023-06-04T07:15:44;5.50;;;1.75;;
75787;SDS011;64406;50.024;14.492;2023-06-04T07:18:10;3.47;;;1.55;;
75787;SDS011;64406;50.024;14.492;2023-06-04T07:20:36;1.92;;;1.30;;
75787;SDS011;64406;50.024;14.492;2023-06-04T07:23:02;2.78;;;1.60;;
75787;SDS011;64406;50.024;14.492;2023-06-04T07:25:27;2.10;;;1.40;;
75787;SDS011;64406;50.024;14.492;2023-06-04T07:27:53;2.45;;;1.50;;
75787;SDS011;64406;50.024;14.492;2023-06-04T07:30:23;1.67;;;1.30;;
75787;SDS011;64406;50.024;14.492;2023-06-04T07:32:49;4.82;;;1.63;;
75787;SDS011;64406;50.024;14.492;2023-06-04T07:35:16;3.80;;;1.55;;
75787;SDS011;64406;50.024;14.492;2023-06-04T07:37:41;3.72;;;1.42;;
75787;SDS011;64406;50.024;14.492;2023-06-04T07:40:13;3.70;;;1.58;;
75787;SDS011;64406;50.024;14.492;2023-06-04T07:42:39;5.28;;;1.63;;
75787;SDS011;64406;50.024;14.492;2023-06-04T07:45:06;4.00;;;1.42;;
75787;SDS011;64406;50.024;14.492;2023-06-04T07:47:32;3.15;;;1.60;;
75787;SDS011;64406;50.024;14.492;2023-06-04T07:49:57;2.53;;;1.20;;
75787;SDS011;64406;50.024;14.492;2023-06-04T07:52:23;3.05;;;1.67;;
75787;SDS011;64406;50.024;14.492;2023-06-04T07:54:49;2.50;;;1.50;;
75787;SDS011;64406;50.024;14.492;2023-06-04T07:57:14;5.35;;;1.67;;
75787;SDS011;64406;50.024;14.492;2023-06-04T07:59:40;1.83;;;1.33;;
75787;SDS011;64406;50.024;14.492;2023-06-04T08:02:05;3.72;;;1.30;;
75787;SDS011;64406;50.024;14.492;2023-06-04T08:04:33;3.50;;;1.30;;
75787;SDS011;64406;50.024;14.492;2023-06-04T08:06:58;3.40;;;1.55;;
75787;SDS011;64406;50.024;14.492;2023-06-04T08:09:24;4.47;;;1.30;;
75787;SDS011;64406;50.024;14.492;2023-06-04T08:11:50;2.47;;;1.48;;
75787;SDS011;64406;50.024;14.492;2023-06-04T08:14:15;3.55;;;1.35;;
75787;SDS011;64406;50.024;14.492;2023-06-04T08:16:41;6.03;;;1.77;;
75787;SDS011;64406;50.024;14.492;2023-06-04T08:19:06;5.32;;;1.52;;
75787;SDS011;64406;50.024;14.492;2023-06-04T08:21:33;1.88;;;1.27;;
75787;SDS011;64406;50.024;14.492;2023-06-04T08:23:59;10.05;;;1.50;;
75787;SDS011;64406;50.024;14.492;2023-06-04T08:26:25;2.53;;;1.20;;
75787;SDS011;64406;50.024;14.492;2023-06-04T08:28:54;2.53;;;1.38;;
75787;SDS011;64406;50.024;14.492;2023-06-04T08:31:20;3.85;;;1.60;;
75787;SDS011;64406;50.024;14.492;2023-06-04T08:33:46;2.35;;;1.20;;
75787;SDS011;64406;50.024;14.492;2023-06-04T08:36:13;4.05;;;1.48;;
75787;SDS011;64406;50.024;14.492;2023-06-04T08:38:39;3.67;;;1.48;;
75787;SDS011;64406;50.024;14.492;2023-06-04T08:41:24;2.67;;;1.30;;
75787;SDS011;64406;50.024;14.492;2023-06-04T08:43:57;2.75;;;1.23;;
75787;SDS011;64406;50.024;14.492;2023-06-04T08:46:23;2.75;;;1.42;;
75787;SDS011;64406;50.024;14.492;2023-06-04T08:48:49;1.90;;;1.00;;
75787;SDS011;64406;50.024;14.492;2023-06-04T08:51:15;4.00;;;1.55;;
75787;SDS011;64406;50.024;14.492;2023-06-04T08:53:42;2.92;;;1.52;;
75787;SDS011;64406;50.024;14.492;2023-06-04T08:56:08;1.60;;;1.00;;
75787;SDS011;64406;50.024;14.492;2023-06-04T08:58:35;3.67;;;1.30;;
75787;SDS011;64406;50.024;14.492;2023-06-04T09:01:02;2.70;;;1.30;;
75787;SDS011;64406;50.024;14.492;2023-06-04T09:03:28;1.83;;;1.10;;
75787;SDS011;64406;50.024;14.492;2023-06-04T09:05:58;2.15;;;1.20;;
75787;SDS011;64406;50.024;14.492;2023-06-04T09:08:24;4.68;;;1.40;;
75787;SDS011;64406;50.024;14.492;2023-06-04T09:10:53;2.03;;;1.30;;
75787;SDS011;64406;50.024;14.492;2023-06-04T09:13:21;2.60;;;1.05;;
75787;SDS011;64406;50.024;14.492;2023-06-04T09:16:00;2.10;;;1.20;;
75787;SDS011;64406;50.024;14.492;2023-06-04T09:18:30;3.63;;;1.58;;
75787;SDS011;64406;50.024;14.492;2023-06-04T09:21:15;3.65;;;1.40;;
75787;SDS011;64406;50.024;14.492;2023-06-04T09:23:47;2.95;;;1.25;;
75787;SDS011;64406;50.024;14.492;2023-06-04T09:26:13;5.45;;;1.60;;
75787;SDS011;64406;50.024;14.492;2023-06-04T09:28:42;3.15;;;1.52;;
75787;SDS011;64406;50.024;14.492;2023-06-04T09:31:17;4.07;;;1.40;;
75787;SDS011;64406;50.024;14.492;2023-06-04T09:33:46;1.60;;;1.15;;
75787;SDS011;64406;50.024;14.492;2023-06-04T09:36:15;3.80;;;1.20;;
75787;SDS011;64406;50.024;14.492;2023-06-04T09:38:41;2.22;;;1.25;;
75787;SDS011;64406;50.024;14.492;2023-06-04T09:41:13;3.47;;;1.20;;
75787;SDS011;64406;50.024;14.492;2023-06-04T09:46:13;3.30;;;1.38;;
75787;SDS011;64406;50.024;14.492;2023-06-04T09:48:40;2.28;;;1.20;;
75787;SDS011;64406;50.024;14.492;2023-06-04T09:51:10;1.58;;;1.27;;
75787;SDS011;64406;50.024;14.492;2023-06-04T09:53:37;2.03;;;1.13;;
75787;SDS011;64406;50.024;14.492;2023-06-04T09:56:04;2.28;;;1.48;;
75787;SDS011;64406;50.024;14.492;2023-06-04T09:58:31;3.42;;;1.40;;
75787;SDS011;64406;50.024;14.492;2023-06-04T10:00:58;4.13;;;1.63;;
75787;SDS011;64406;50.024;14.492;2023-06-04T10:03:29;1.77;;;1.17;;
75787;SDS011;64406;50.024;14.492;2023-06-04T10:05:58;3.38;;;1.52;;
75787;SDS011;64406;50.024;14.492;2023-06-04T10:08:29;3.05;;;1.33;;
75787;SDS011;64406;50.024;14.492;2023-06-04T10:10:56;2.80;;;1.30;;
75787;SDS011;64406;50.024;14.492;2023-06-04T10:13:29;2.47;;;1.33;;
75787;SDS011;64406;50.024;14.492;2023-06-04T10:15:58;3.53;;;1.10;;
75787;SDS011;64406;50.024;14.492;2023-06-04T10:18:24;2.03;;;1.20;;
75787;SDS011;64406;50.024;14.492;2023-06-04T10:20:54;2.45;;;1.30;;
75787;SDS011;64406;50.024;14.492;2023-06-04T10:23:21;3.50;;;1.48;;
75787;SDS011;64406;50.024;14.492;2023-06-04T10:25:48;2.42;;;1.80;;
75787;SDS011;64406;50.024;14.492;2023-06-04T10:28:15;1.98;;;1.48;;
75787;SDS011;64406;50.024;14.492;2023-06-04T10:30:44;1.65;;;1.20;;
75787;SDS011;64406;50.024;14.492;2023-06-04T10:33:10;3.35;;;1.20;;
75787;SDS011;64406;50.024;14.492;2023-06-04T10:35:36;2.08;;;1.10;;
75787;SDS011;64406;50.024;14.492;2023-06-04T10:38:08;3.05;;;1.40;;
75787;SDS011;64406;50.024;14.492;2023-06-04T10:40:35;2.00;;;1.38;;
75787;SDS011;64406;50.024;14.492;2023-06-04T10:43:05;1.98;;;1.23;;
75787;SDS011;64406;50.024;14.492;2023-06-04T10:45:31;1.17;;;1.00;;
75787;SDS011;64406;50.024;14.492;2023-06-04T10:48:00;4.30;;;1.48;;
75787;SDS011;64406;50.024;14.492;2023-06-04T10:50:27;1.40;;;1.15;;
75787;SDS011;64406;50.024;14.492;2023-06-04T10:52:53;1.88;;;1.38;;
75787;SDS011;64406;50.024;14.492;2023-06-04T10:55:20;1.20;;;1.10;;
75787;SDS011;64406;50.024;14.492;2023-06-04T10:57:55;1.67;;;1.10;;
75787;SDS011;64406;50.024;14.492;2023-06-04T11:00:22;2.78;;;1.40;;
75787;SDS011;64406;50.024;14.492;2023-06-04T11:03:04;1.63;;;1.30;;
75787;SDS011;64406;50.024;14.492;2023-06-04T11:05:39;2.97;;;1.13;;
75787;SDS011;64406;50.024;14.492;2023-06-04T11:08:07;3.22;;;1.27;;
75787;SDS011;64406;50.024;14.492;2023-06-04T11:10:36;1.95;;;1.25;;
75787;SDS011;64406;50.024;14.492;2023-06-04T11:13:11;2.08;;;0.93;;
75787;SDS011;64406;50.024;14.492;2023-06-04T11:15:37;1.73;;;1.20;;
75787;SDS011;64406;50.024;14.492;2023-06-04T11:18:04;4.25;;;1.48;;
75787;SDS011;64406;50.024;14.492;2023-06-04T11:20:30;2.72;;;1.10;;
75787;SDS011;64406;50.024;14.492;2023-06-04T11:22:56;4.43;;;1.23;;
75787;SDS011;64406;50.024;14.492;2023-06-04T11:25:25;2.75;;;1.40;;
75787;SDS011;64406;50.024;14.492;2023-06-04T11:27:52;1.83;;;1.50;;
75787;SDS011;64406;50.024;14.492;2023-06-04T11:30:19;1.63;;;0.95;;
75787;SDS011;64406;50.024;14.492;2023-06-04T11:32:45;3.15;;;1.33;;
75787;SDS011;64406;50.024;14.492;2023-06-04T11:35:11;3.85;;;1.50;;
75787;SDS011;64406;50.024;14.492;2023-06-04T11:37:37;1.67;;;1.17;;
75787;SDS011;64406;50.024;14.492;2023-06-04T11:40:14;2.40;;;1.45;;
75787;SDS011;64406;50.024;14.492;2023-06-04T11:42:41;4.30;;;1.27;;
75787;SDS011;64406;50.024;14.492;2023-06-04T11:45:09;4.07;;;1.40;;
75787;SDS011;64406;50.024;14.492;2023-06-04T11:47:37;1.58;;;0.90;;
75787;SDS011;64406;50.024;14.492;2023-06-04T11:50:03;2.17;;;1.73;;
75787;SDS011;64406;50.024;14.492;2023-06-04T11:52:29;3.33;;;1.70;;
75787;SDS011;64406;50.024;14.492;2023-06-04T11:54:55;3.50;;;1.30;;
75787;SDS011;64406;50.024;14.492;2023-06-04T11:57:21;4.72;;;1.20;;
75787;SDS011;64406;50.024;14.492;2023-06-04T11:59:47;5.40;;;1.70;;
75787;SDS011;64406;50.024;14.492;2023-06-04T12:02:13;1.98;;;1.40;;
75787;SDS011;64406;50.024;14.492;2023-06-04T12:04:39;4.15;;;1.50;;
75787;SDS011;64406;50.024;14.492;2023-06-04T12:07:04;4.35;;;1.38;;
75787;SDS011;64406;50.024;14.492;2023-06-04T12:09:31;4.57;;;1.40;;
75787;SDS011;64406;50.024;14.492;2023-06-04T12:12:01;2.53;;;1.35;;
75787;SDS011;64406;50.024;14.492;2023-06-04T12:14:31;2.50;;;1.35;;
75787;SDS011;64406;50.024;14.492;2023-06-04T12:16:57;4.57;;;1.40;;
75787;SDS011;64406;50.024;14.492;2023-06-04T12:19:24;2.17;;;1.20;;
75787;SDS011;64406;50.024;14.492;2023-06-04T12:22:01;2.22;;;1.30;;
75787;SDS011;64406;50.024;14.492;2023-06-04T12:24:28;1.23;;;1.00;;
75787;SDS011;64406;50.024;14.492;2023-06-04T12:27:01;2.65;;;1.13;;
75787;SDS011;64406;50.024;14.492;2023-06-04T12:29:32;1.67;;;1.27;;
75787;SDS011;64406;50.024;14.492;2023-06-04T12:32:07;2.42;;;1.15;;
75787;SDS011;64406;50.024;14.492;2023-06-04T12:34:35;2.65;;;1.02;;
75787;SDS011;64406;50.024;14.492;2023-06-04T12:37:01;1.83;;;1.20;;
75787;SDS011;64406;50.024;14.492;2023-06-04T12:39:31;1.27;;;1.17;;
75787;SDS011;64406;50.024;14.492;2023-06-04T12:41:58;4.32;;;1.50;;
75787;SDS011;64406;50.024;14.492;2023-06-04T12:44:23;1.95;;;1.45;;
75787;SDS011;64406;50.024;14.492;2023-06-04T12:46:49;2.05;;;1.50;;
75787;SDS011;64406;50.024;14.492;2023-06-04T12:49:15;2.63;;;1.40;;
75787;SDS011;64406;50.024;14.492;2023-06-04T12:51:41;2.33;;;1.60;;
75787;SDS011;64406;50.024;14.492;2023-06-04T12:54:07;1.73;;;1.42;;
75787;SDS011;64406;50.024;14.492;2023-06-04T12:56:32;2.90;;;1.55;;
75787;SDS011;64406;50.024;14.492;2023-06-04T12:58:58;3.45;;;1.60;;
75787;SDS011;64406;50.024;14.492;2023-06-04T13:01:24;1.90;;;1.50;;
75787;SDS011;64406;50.024;14.492;2023-06-04T13:03:50;2.90;;;1.42;;
75787;SDS011;64406;50.024;14.492;2023-06-04T13:06:16;3.65;;;1.58;;
75787;SDS011;64406;50.024;14.492;2023-06-04T13:08:41;2.75;;;1.55;;
75787;SDS011;64406;50.024;14.492;2023-06-04T13:11:08;4.45;;;1.65;;
75787;SDS011;64406;50.024;14.492;2023-06-04T13:13:35;2.85;;;1.50;;
75787;SDS011;64406;50.024;14.492;2023-06-04T13:16:02;1.63;;;1.50;;
75787;SDS011;64406;50.024;14.492;2023-06-04T13:18:28;3.03;;;1.80;;
75787;SDS011;64406;50.024;14.492;2023-06-04T13:20:53;1.58;;;1.48;;
75787;SDS011;64406;50.024;14.492;2023-06-04T13:23:19;2.30;;;1.30;;
75787;SDS011;64406;50.024;14.492;2023-06-04T13:25:45;2.17;;;1.33;;
75787;SDS011;64406;50.024;14.492;2023-06-04T13:28:11;1.58;;;1.48;;
75787;SDS011;64406;50.024;14.492;2023-06-04T13:30:37;1.80;;;1.58;;
75787;SDS011;64406;50.024;14.492;2023-06-04T13:33:03;1.65;;;1.55;;
75787;SDS011;64406;50.024;14.492;2023-06-04T13:35:29;2.65;;;1.83;;
75787;SDS011;64406;50.024;14.492;2023-06-04T13:37:55;2.03;;;1.73;;
75787;SDS011;64406;50.024;14.492;2023-06-04T13:40:21;3.75;;;1.70;;
75787;SDS011;64406;50.024;14.492;2023-06-04T13:42:46;1.38;;;1.27;;
75787;SDS011;64406;50.024;14.492;2023-06-04T13:45:12;1.98;;;1.67;;
75787;SDS011;64406;50.024;14.492;2023-06-04T13:47:38;3.03;;;1.90;;
75787;SDS011;64406;50.024;14.492;2023-06-04T13:50:04;2.60;;;1.70;;
75787;SDS011;64406;50.024;14.492;2023-06-04T13:52:30;2.25;;;1.60;;
75787;SDS011;64406;50.024;14.492;2023-06-04T13:54:56;2.53;;;1.80;;
75787;SDS011;64406;50.024;14.492;2023-06-04T13:57:24;3.08;;;1.70;;
75787;SDS011;64406;50.024;14.492;2023-06-04T13:59:50;2.10;;;1.60;;
75787;SDS011;64406;50.024;14.492;2023-06-04T14:02:17;1.73;;;1.52;;
75787;SDS011;64406;50.024;14.492;2023-06-04T14:04:42;1.85;;;1.50;;
75787;SDS011;64406;50.024;14.492;2023-06-04T14:07:08;1.85;;;1.75;;
75787;SDS011;64406;50.024;14.492;2023-06-04T14:09:34;2.00;;;1.40;;
75787;SDS011;64406;50.024;14.492;2023-06-04T14:12:01;2.15;;;1.60;;
75787;SDS011;64406;50.024;14.492;2023-06-04T14:14:27;2.25;;;1.20;;
75787;SDS011;64406;50.024;14.492;2023-06-04T14:16:56;1.75;;;1.45;;
75787;SDS011;64406;50.024;14.492;2023-06-04T14:19:22;1.80;;;1.70;;
75787;SDS011;64406;50.024;14.492;2023-06-04T14:21:48;2.03;;;1.50;;
75787;SDS011;64406;50.024;14.492;2023-06-04T14:24:14;2.35;;;1.67;;
75787;SDS011;64406;50.024;14.492;2023-06-04T14:26:39;1.73;;;1.63;;
75787;SDS011;64406;50.024;14.492;2023-06-04T14:29:05;1.60;;;1.50;;
75787;SDS011;64406;50.024;14.492;2023-06-04T14:31:31;2.13;;;1.60;;
75787;SDS011;64406;50.024;14.492;2023-06-04T14:33:56;2.42;;;1.50;;
75787;SDS011;64406;50.024;14.492;2023-06-04T14:36:22;1.83;;;1.40;;
75787;SDS011;64406;50.024;14.492;2023-06-04T14:38:47;2.30;;;1.70;;
75787;SDS011;64406;50.024;14.492;2023-06-04T14:41:16;2.65;;;1.60;;
75787;SDS011;64406;50.024;14.492;2023-06-04T14:43:43;2.83;;;1.45;;
75787;SDS011;64406;50.024;14.492;2023-06-04T14:46:08;3.28;;;1.58;;